createdAt,value
2018-06-12T00:00:38.093Z,17.43
2018-06-12T00:05:41.157Z,17.35
2018-06-12T00:10:44.149Z,17.39
2018-06-12T00:15:47.154Z,17.39
2018-06-12T00:20:50.172Z,17.55
2018-06-12T00:25:53.157Z,17.61
2018-06-12T00:30:56.158Z,17.61
2018-06-12T00:35:59.194Z,17.43
2018-06-12T00:41:02.165Z,17.41
2018-06-12T00:46:05.181Z,17.47
2018-06-12T00:51:08.218Z,17.46
2018-06-12T00:56:27.332Z,17.57
2018-06-12T01:01:30.310Z,17.54
2018-06-12T01:06:33.310Z,17.52
2018-06-12T01:11:36.330Z,17.51
2018-06-12T01:16:39.404Z,17.58
2018-06-12T01:21:42.427Z,17.68
2018-06-12T01:26:45.438Z,17.73
2018-06-12T01:31:48.471Z,17.70
2018-06-12T01:36:51.525Z,17.73
2018-06-12T01:41:54.592Z,17.82
2018-06-12T01:46:57.653Z,17.86
2018-06-12T01:52:00.656Z,17.90
2018-06-12T01:57:03.665Z,17.99
2018-06-12T02:02:06.685Z,18.11
2018-06-12T02:07:09.693Z,18.15
2018-06-12T02:12:12.658Z,18.13
2018-06-12T02:17:15.746Z,18.19
2018-06-12T02:22:18.734Z,18.25
2018-06-12T02:27:21.718Z,18.21
2018-06-12T02:32:24.718Z,18.23
2018-06-12T02:37:27.692Z,18.26
2018-06-12T02:42:30.721Z,18.27
2018-06-12T02:47:33.739Z,18.24
2018-06-12T02:52:36.790Z,18.08
2018-06-12T02:57:39.956Z,17.88
2018-06-12T03:02:42.965Z,17.82
2018-06-12T03:07:45.978Z,17.83
2018-06-12T03:12:48.995Z,17.80
2018-06-12T03:17:51.997Z,17.72
2018-06-12T03:22:55.045Z,17.77
2018-06-12T03:27:58.071Z,17.87
2018-06-12T03:33:01.058Z,18.00
2018-06-12T03:38:04.037Z,18.07
2018-06-12T03:43:07.281Z,18.16
2018-06-12T03:48:12.080Z,18.16
2018-06-12T03:53:15.157Z,18.17
2018-06-12T03:58:18.174Z,18.30
2018-06-12T04:03:21.336Z,18.45
2018-06-12T04:08:24.561Z,18.61
2018-06-12T04:13:27.671Z,18.68
2018-06-12T04:18:30.728Z,18.67
2018-06-12T04:23:33.859Z,18.71
2018-06-12T04:28:37.629Z,18.50
2018-06-12T04:33:40.746Z,18.33
2018-06-12T04:38:43.805Z,18.29
2018-06-12T04:43:46.854Z,18.29
2018-06-12T04:48:49.860Z,18.21
2018-06-12T04:53:53.146Z,18.20
2018-06-12T04:58:56.173Z,18.16
2018-06-12T05:03:59.173Z,18.20
2018-06-12T05:09:02.266Z,18.53
2018-06-12T05:14:05.383Z,18.87
2018-06-12T05:19:08.381Z,18.90
2018-06-12T05:24:11.702Z,18.74
2018-06-12T05:29:14.723Z,19.03
2018-06-12T05:34:17.711Z,19.42
2018-06-12T05:39:20.694Z,19.94
2018-06-12T05:44:23.689Z,20.44
2018-06-12T05:49:26.729Z,20.30
2018-06-12T05:54:29.714Z,19.95
2018-06-12T05:59:32.731Z,19.71
2018-06-12T06:04:35.754Z,19.76
2018-06-12T06:09:38.808Z,19.88
2018-06-12T06:14:41.846Z,19.85
2018-06-12T06:19:44.838Z,20.10
2018-06-12T06:24:47.933Z,20.36
2018-06-12T06:29:50.897Z,20.28
2018-06-12T06:34:53.925Z,20.54
2018-06-12T06:39:56.930Z,20.84
2018-06-12T06:44:59.954Z,21.05
2018-06-12T06:50:03.057Z,20.79
2018-06-12T06:55:06.090Z,20.99
2018-06-12T07:00:09.134Z,21.62
2018-06-12T07:05:12.129Z,21.69
2018-06-12T07:10:15.165Z,21.81
2018-06-12T07:15:18.178Z,22.45
2018-06-12T07:20:38.969Z,22.68
2018-06-12T07:25:41.981Z,22.75
2018-06-12T07:30:44.964Z,22.89
2018-06-12T07:35:47.934Z,22.21
2018-06-12T07:40:51.031Z,22.09
2018-06-12T07:45:54.030Z,22.34
2018-06-12T07:50:57.017Z,22.43
2018-06-12T07:56:00.046Z,22.25
2018-06-12T08:01:03.101Z,22.30
2018-06-12T08:06:06.111Z,22.65
2018-06-12T08:11:09.162Z,22.66
2018-06-12T08:21:14.642Z,22.39
2018-06-12T08:26:17.699Z,21.92
2018-06-12T08:31:20.706Z,21.96
2018-06-12T08:36:23.702Z,22.11
2018-06-12T08:41:26.685Z,22.46
2018-06-12T08:46:29.783Z,23.27
2018-06-12T08:51:32.800Z,23.72
2018-06-12T08:56:35.857Z,23.51
2018-06-12T09:01:38.885Z,23.16
2018-06-12T09:06:41.895Z,23.17
2018-06-12T09:11:44.894Z,23.24
2018-06-12T09:16:47.906Z,23.47
2018-06-12T09:21:50.897Z,24.09
2018-06-12T09:26:53.938Z,24.02
2018-06-12T09:31:56.962Z,23.92
2018-06-12T09:37:00.016Z,23.73
2018-06-12T09:42:03.102Z,23.04
2018-06-12T09:47:06.093Z,22.66
2018-06-12T09:52:09.135Z,22.81
2018-06-12T09:57:12.210Z,23.47
2018-06-12T10:02:15.253Z,23.70
2018-06-12T10:07:18.262Z,24.03
2018-06-12T10:12:21.269Z,24.64
2018-06-12T10:17:24.333Z,25.21
2018-06-12T10:22:27.474Z,25.73
2018-06-12T10:27:30.482Z,25.88
2018-06-12T10:32:33.466Z,25.91
2018-06-12T10:37:36.497Z,25.45
2018-06-12T10:42:39.566Z,25.25
2018-06-12T10:47:42.566Z,25.36
2018-06-12T10:52:45.587Z,25.15
2018-06-12T10:57:48.636Z,24.78
2018-06-12T11:02:51.699Z,24.52
2018-06-12T11:07:54.747Z,24.03
2018-06-12T11:12:57.742Z,23.81
2018-06-12T11:18:00.746Z,23.87
2018-06-12T11:23:03.832Z,24.22
2018-06-12T11:28:06.858Z,25.03
2018-06-12T11:33:09.951Z,25.60
2018-06-12T11:38:12.959Z,25.52
2018-06-12T11:43:15.966Z,25.45
2018-06-12T11:48:18.970Z,24.89
2018-06-12T11:53:21.975Z,25.13
2018-06-12T11:58:24.969Z,25.58
2018-06-12T12:03:27.955Z,24.87
2018-06-12T12:08:30.996Z,24.74
2018-06-12T12:13:34.079Z,25.47
2018-06-12T12:18:37.195Z,25.20
2018-06-12T12:23:40.255Z,24.99
2018-06-12T12:28:43.344Z,24.87
2018-06-12T12:33:46.319Z,24.86
2018-06-12T12:38:49.321Z,25.26
2018-06-12T12:43:52.309Z,25.47
2018-06-12T12:48:55.303Z,25.20
2018-06-12T12:53:58.317Z,24.97
2018-06-12T12:59:01.329Z,24.02
2018-06-12T13:04:04.381Z,24.42
2018-06-12T13:09:07.726Z,24.39
2018-06-12T13:14:10.742Z,23.93
2018-06-12T13:19:13.713Z,23.62
2018-06-12T13:24:16.783Z,23.67
2018-06-12T13:29:19.838Z,23.85
2018-06-12T13:34:22.919Z,24.14
2018-06-12T13:39:29.069Z,24.46
2018-06-12T13:44:32.134Z,24.40
2018-06-12T13:49:35.134Z,24.20
2018-06-12T13:54:38.179Z,24.09
2018-06-12T13:59:41.362Z,24.12
2018-06-12T14:04:44.455Z,23.92
2018-06-12T14:09:47.451Z,24.05
2018-06-12T14:14:50.492Z,23.74
2018-06-12T14:19:53.507Z,23.49
2018-06-12T14:24:56.550Z,23.19
2018-06-12T14:29:59.610Z,23.21
2018-06-12T14:35:02.689Z,23.27
2018-06-12T14:40:05.790Z,23.52
2018-06-12T14:45:08.854Z,23.50
2018-06-12T14:50:12.028Z,23.23
2018-06-12T14:55:15.097Z,23.13
2018-06-12T15:00:18.161Z,22.91
2018-06-12T15:05:22.192Z,23.14
2018-06-12T15:10:25.206Z,23.74
2018-06-12T15:15:28.258Z,23.54
2018-06-12T15:20:31.482Z,23.50
2018-06-12T15:25:34.514Z,23.09
2018-06-12T15:30:37.742Z,22.86
2018-06-12T15:35:40.870Z,22.99
2018-06-12T15:40:43.883Z,22.89
2018-06-12T15:45:46.899Z,22.86
2018-06-12T15:50:49.918Z,22.84
2018-06-12T15:55:52.970Z,22.81
2018-06-12T16:00:56.084Z,22.93
2018-06-12T16:05:59.162Z,22.75
2018-06-12T16:11:02.222Z,22.54
2018-06-12T16:16:05.406Z,22.27
2018-06-12T16:21:08.536Z,22.39
2018-06-12T16:26:11.632Z,22.26
2018-06-12T16:31:14.603Z,22.66
2018-06-12T16:36:17.605Z,22.91
2018-06-12T16:41:20.739Z,22.69
2018-06-12T16:46:23.811Z,22.58
2018-06-12T16:51:26.810Z,22.44
2018-06-12T16:56:29.883Z,22.36
2018-06-12T17:01:32.968Z,22.35
2018-06-12T17:06:36.068Z,21.97
2018-06-12T17:11:39.127Z,22.03
2018-06-12T17:16:42.177Z,21.79
2018-06-12T17:21:45.207Z,21.90
2018-06-12T17:26:48.306Z,21.76
2018-06-12T17:31:51.459Z,21.65
2018-06-12T17:36:54.516Z,21.66
2018-06-12T17:41:57.523Z,21.51
2018-06-12T17:47:00.543Z,21.16
2018-06-12T17:52:03.606Z,21.23
2018-06-12T17:57:06.651Z,21.43
2018-06-12T18:02:09.946Z,21.27
2018-06-12T18:07:12.987Z,21.30
2018-06-12T18:12:16.008Z,21.30
2018-06-12T18:17:19.048Z,21.26
2018-06-12T18:22:22.798Z,21.15
2018-06-12T18:27:26.719Z,20.94
2018-06-12T18:32:30.003Z,20.95
2018-06-12T18:37:33.070Z,20.84
2018-06-12T18:42:36.066Z,20.56
2018-06-12T18:47:39.451Z,20.47
2018-06-12T18:52:42.916Z,20.42
2018-06-12T18:57:45.957Z,20.40
2018-06-12T19:02:49.233Z,20.16
2018-06-12T19:07:52.318Z,19.91
2018-06-12T19:12:55.443Z,19.85
2018-06-12T19:17:58.545Z,19.82
2018-06-12T19:23:01.619Z,19.81
2018-06-12T19:28:04.762Z,19.90
2018-06-12T19:33:07.809Z,20.03
2018-06-12T19:38:10.945Z,20.05
2018-06-12T19:43:14.365Z,20.00
2018-06-12T19:48:17.419Z,19.76
2018-06-12T19:53:20.510Z,20.13
2018-06-12T19:58:23.587Z,20.21
2018-06-12T20:03:26.643Z,20.08
2018-06-12T20:08:29.708Z,20.11
2018-06-12T20:13:32.731Z,20.11
2018-06-12T20:18:35.737Z,19.92
2018-06-12T20:23:38.919Z,19.90
2018-06-12T20:28:42.006Z,19.85
2018-06-12T20:33:45.044Z,19.79
2018-06-12T20:38:48.057Z,19.82
2018-06-12T20:43:51.438Z,19.93
2018-06-12T20:48:54.501Z,19.91
2018-06-12T20:53:57.549Z,19.89
2018-06-12T20:59:00.601Z,19.82
2018-06-12T21:04:03.694Z,19.77
2018-06-12T21:09:06.755Z,19.90
2018-06-12T21:14:09.759Z,19.88
2018-06-12T21:19:12.795Z,19.89
2018-06-12T21:24:15.806Z,19.80
2018-06-12T21:29:18.830Z,19.78
2018-06-12T21:34:21.930Z,19.72
2018-06-12T21:39:24.933Z,19.66
2018-06-12T21:44:27.987Z,19.58
2018-06-12T21:49:31.045Z,19.45
2018-06-12T21:54:34.052Z,19.43
2018-06-12T21:59:37.058Z,19.50
2018-06-12T22:04:40.104Z,19.48
2018-06-12T22:09:43.078Z,19.40
2018-06-12T22:14:46.168Z,19.38
2018-06-12T22:19:49.158Z,19.39
2018-06-12T22:24:52.162Z,19.23
2018-06-12T22:29:55.138Z,19.16
2018-06-12T22:34:58.158Z,19.14
2018-06-12T22:40:01.165Z,19.19
2018-06-12T22:45:04.301Z,19.17
2018-06-12T22:50:07.301Z,18.92
2018-06-12T22:55:10.297Z,18.92
2018-06-12T23:00:20.412Z,18.84
2018-06-12T23:05:23.393Z,18.92
2018-06-12T23:10:26.401Z,18.88
2018-06-12T23:15:29.442Z,18.69
2018-06-12T23:22:04.246Z,18.70
2018-06-12T23:27:07.261Z,18.39
2018-06-12T23:32:10.270Z,18.39
2018-06-12T23:37:13.266Z,18.37
2018-06-12T23:42:16.273Z,18.31
2018-06-12T23:47:19.269Z,18.36
2018-06-12T23:52:22.316Z,18.27
2018-06-12T23:57:25.378Z,18.26
